createdAt,value
2023-03-27T00:01:20.692Z,99.90
2023-03-27T00:03:51.847Z,99.90
2023-03-27T00:06:25.281Z,99.90
2023-03-27T00:08:54.223Z,99.90
2023-03-27T00:11:25.292Z,99.90
2023-03-27T00:13:55.075Z,99.90
2023-03-27T00:16:25.558Z,99.90
2023-03-27T00:18:54.516Z,99.90
2023-03-27T00:21:26.169Z,99.90
2023-03-27T00:23:54.638Z,99.90
2023-03-27T00:26:23.280Z,99.90
2023-03-27T00:28:52.878Z,99.90
2023-03-27T00:31:21.691Z,99.90
2023-03-27T00:33:50.182Z,99.90
2023-03-27T00:36:18.640Z,99.90
2023-03-27T00:38:48.550Z,99.90
2023-03-27T00:41:17.397Z,99.90
2023-03-27T00:43:45.972Z,99.90
2023-03-27T00:46:38.978Z,99.90
2023-03-27T00:49:11.292Z,99.90
2023-03-27T00:51:41.302Z,99.90
2023-03-27T00:54:12.135Z,99.90
2023-03-27T00:56:40.743Z,99.90
2023-03-27T00:59:13.390Z,99.90
2023-03-27T01:01:42.744Z,99.90
2023-03-27T01:04:11.581Z,99.90
2023-03-27T01:06:42.415Z,99.90
2023-03-27T01:09:20.206Z,99.90
2023-03-27T01:11:58.258Z,99.90
2023-03-27T01:14:36.228Z,99.90
2023-03-27T01:17:21.513Z,99.90
2023-03-27T01:20:24.695Z,99.90
2023-03-27T01:23:36.301Z,99.90
2023-03-27T01:26:58.480Z,99.90
2023-03-27T01:29:37.389Z,99.90
2023-03-27T01:32:49.656Z,99.90
2023-03-27T01:35:41.498Z,99.90
2023-03-27T01:38:45.628Z,99.90
2023-03-27T01:41:21.868Z,99.90
2023-03-27T01:43:58.236Z,99.90
2023-03-27T01:46:36.214Z,99.90
2023-03-27T01:49:09.875Z,99.90
2023-03-27T01:51:41.949Z,99.90
2023-03-27T01:54:17.775Z,99.90
2023-03-27T01:56:53.913Z,99.90
2023-03-27T01:59:27.295Z,99.90
2023-03-27T02:02:00.531Z,99.90
2023-03-27T02:04:37.378Z,99.90
2023-03-27T02:07:12.583Z,99.90
2023-03-27T02:09:47.916Z,99.90
2023-03-27T02:12:21.023Z,99.90
2023-03-27T02:14:55.012Z,99.90
2023-03-27T02:17:26.469Z,99.90
2023-03-27T02:19:59.981Z,99.90
2023-03-27T02:22:37.602Z,99.90
2023-03-27T02:25:25.498Z,99.90
2023-03-27T02:28:02.446Z,99.90
2023-03-27T02:30:36.444Z,99.90
2023-03-27T02:33:14.863Z,99.90
2023-03-27T02:35:51.989Z,99.90
2023-03-27T02:38:25.830Z,99.90
2023-03-27T02:41:03.963Z,99.90
2023-03-27T02:43:38.986Z,99.90
2023-03-27T02:46:14.520Z,99.90
2023-03-27T02:48:47.588Z,99.90
2023-03-27T02:51:21.019Z,99.90
2023-03-27T02:53:54.396Z,99.90
2023-03-27T02:56:26.260Z,99.90
2023-03-27T02:59:00.056Z,99.90
2023-03-27T03:01:30.886Z,99.90
2023-03-27T03:04:02.035Z,99.90
2023-03-27T03:06:31.059Z,99.90
2023-03-27T03:09:03.201Z,99.90
2023-03-27T03:11:31.899Z,99.90
2023-03-27T03:14:02.470Z,99.90
2023-03-27T03:16:31.567Z,99.90
2023-03-27T03:18:59.925Z,99.90
2023-03-27T03:21:28.341Z,99.90
2023-03-27T03:23:58.475Z,99.90
2023-03-27T03:26:28.021Z,99.90
2023-03-27T03:29:00.824Z,99.90
2023-03-27T03:31:44.496Z,99.90
2023-03-27T03:34:14.575Z,99.90
2023-03-27T03:36:43.350Z,99.90
2023-03-27T03:39:12.926Z,99.90
2023-03-27T03:41:41.702Z,99.90
2023-03-27T03:44:10.609Z,99.90
2023-03-27T03:46:41.087Z,99.90
2023-03-27T03:49:09.770Z,99.90
2023-03-27T03:51:38.470Z,99.90
2023-03-27T03:54:07.519Z,99.90
2023-03-27T03:56:37.489Z,99.90
2023-03-27T03:59:06.053Z,99.90
2023-03-27T04:01:34.609Z,99.90
2023-03-27T04:04:05.180Z,99.90
2023-03-27T04:06:38.042Z,99.90
2023-03-27T04:09:06.660Z,99.90
2023-03-27T04:11:35.545Z,99.90
2023-03-27T04:14:03.996Z,99.90
2023-03-27T04:16:32.503Z,99.90
2023-03-27T04:19:01.494Z,99.90
2023-03-27T04:21:34.217Z,99.90
2023-03-27T04:24:03.076Z,99.90
2023-03-27T04:26:31.653Z,99.90
2023-03-27T04:29:00.182Z,99.90
2023-03-27T04:31:30.483Z,99.90
2023-03-27T04:34:00.142Z,99.90
2023-03-27T04:36:30.156Z,99.90
2023-03-27T04:39:02.477Z,99.90
2023-03-27T04:41:30.953Z,99.90
2023-03-27T04:43:59.361Z,99.90
2023-03-27T04:46:27.826Z,99.90
2023-03-27T04:48:56.590Z,99.90
2023-03-27T04:51:27.143Z,99.90
2023-03-27T04:53:56.549Z,99.90
2023-03-27T04:56:26.776Z,99.90
2023-03-27T04:58:55.433Z,99.90
2023-03-27T05:01:25.914Z,99.90
2023-03-27T05:03:54.929Z,99.90
2023-03-27T05:06:23.971Z,99.90
2023-03-27T05:08:52.973Z,99.90
2023-03-27T05:11:21.435Z,99.90
2023-03-27T05:13:51.784Z,99.90
2023-03-27T05:16:20.568Z,99.90
2023-03-27T05:18:49.578Z,99.90
2023-03-27T05:21:17.895Z,99.90
2023-03-27T05:23:46.370Z,99.90
2023-03-27T05:26:14.902Z,99.90
2023-03-27T05:28:43.582Z,99.90
2023-03-27T05:31:13.508Z,99.90
2023-03-27T05:33:41.871Z,99.90
2023-03-27T05:36:11.229Z,99.90
2023-03-27T05:38:39.710Z,99.90
2023-03-27T05:41:10.097Z,99.90
2023-03-27T05:43:38.669Z,99.90
2023-03-27T05:46:09.550Z,99.90
2023-03-27T05:48:41.233Z,99.90
2023-03-27T05:51:10.739Z,99.90
2023-03-27T05:53:39.623Z,99.90
2023-03-27T05:56:09.103Z,99.90
2023-03-27T05:58:37.666Z,99.90
2023-03-27T06:01:06.749Z,99.90
2023-03-27T06:03:38.653Z,99.90
2023-03-27T06:06:13.688Z,99.90
2023-03-27T06:08:42.258Z,99.90
2023-03-27T06:11:11.534Z,99.90
2023-03-27T06:13:42.847Z,99.90
2023-03-27T06:16:11.873Z,99.90
2023-03-27T06:18:40.192Z,99.90
2023-03-27T06:21:10.266Z,99.90
2023-03-27T06:23:38.556Z,99.90
2023-03-27T06:26:07.697Z,99.90
2023-03-27T06:28:36.049Z,99.90
2023-03-27T06:31:04.590Z,99.90
2023-03-27T06:33:33.201Z,99.90
2023-03-27T06:36:01.596Z,99.90
2023-03-27T06:38:33.012Z,99.90
2023-03-27T06:41:01.673Z,99.90
2023-03-27T06:43:30.234Z,99.90
2023-03-27T06:45:58.757Z,99.90
2023-03-27T06:48:27.242Z,99.90
2023-03-27T06:50:56.172Z,99.90
2023-03-27T06:53:28.011Z,99.90
2023-03-27T06:55:59.101Z,99.90
2023-03-27T06:58:28.253Z,99.90
2023-03-27T07:00:57.088Z,99.90
2023-03-27T07:03:25.900Z,99.90
2023-03-27T07:05:57.536Z,99.90
2023-03-27T07:08:26.216Z,99.90
2023-03-27T07:13:28.071Z,99.90
2023-03-27T07:15:56.350Z,99.90
2023-03-27T07:18:24.809Z,99.90
2023-03-27T07:20:53.229Z,99.90
2023-03-27T07:23:21.527Z,99.90
2023-03-27T07:25:54.306Z,99.90
2023-03-27T07:28:22.806Z,99.90
2023-03-27T07:30:52.732Z,99.90
2023-03-27T07:33:21.477Z,99.90
2023-03-27T07:35:50.211Z,99.90
2023-03-27T07:38:18.758Z,99.90
2023-03-27T07:40:47.523Z,99.90
2023-03-27T07:43:16.885Z,99.90
2023-03-27T07:45:45.224Z,99.90
2023-03-27T07:48:16.414Z,99.90
2023-03-27T07:50:45.162Z,99.90
2023-03-27T07:53:33.019Z,99.90
2023-03-27T07:56:02.972Z,99.90
2023-03-27T07:58:31.567Z,99.90
2023-03-27T08:01:02.618Z,99.90
2023-03-27T08:03:32.973Z,99.90
2023-03-27T08:06:02.294Z,99.90
2023-03-27T08:08:30.929Z,99.90
2023-03-27T08:11:00.770Z,99.90
2023-03-27T08:13:29.598Z,99.90
2023-03-27T08:16:04.712Z,99.90
2023-03-27T08:18:34.827Z,99.90
2023-03-27T08:21:04.093Z,99.90
2023-03-27T08:23:33.993Z,99.90
2023-03-27T08:26:03.916Z,99.90
2023-03-27T08:28:34.635Z,99.90
2023-03-27T08:31:04.343Z,99.90
2023-03-27T08:33:34.336Z,99.90
2023-03-27T08:36:02.624Z,99.90
2023-03-27T08:38:33.487Z,99.90
2023-03-27T08:41:04.063Z,99.90
2023-03-27T08:43:39.850Z,99.90
2023-03-27T08:46:16.141Z,99.90
2023-03-27T08:48:53.473Z,99.90
2023-03-27T08:51:26.704Z,99.90
2023-03-27T08:54:00.159Z,99.90
2023-03-27T08:56:28.938Z,99.90
2023-03-27T08:58:57.405Z,99.90
2023-03-27T09:01:31.569Z,99.90
2023-03-27T09:04:07.464Z,99.90
2023-03-27T09:06:48.416Z,99.90
2023-03-27T09:09:33.156Z,99.90
2023-03-27T09:12:07.494Z,99.90
2023-03-27T09:14:38.773Z,99.90
2023-03-27T09:17:13.242Z,99.90
2023-03-27T09:19:48.926Z,99.90
2023-03-27T09:22:21.796Z,99.90
2023-03-27T09:24:55.280Z,99.90
2023-03-27T09:27:26.778Z,99.90
2023-03-27T09:30:05.637Z,99.90
2023-03-27T09:32:35.296Z,99.90
2023-03-27T09:35:06.229Z,99.90
2023-03-27T09:37:36.964Z,99.90
2023-03-27T09:40:08.475Z,99.90
2023-03-27T09:42:40.595Z,99.90
2023-03-27T09:45:14.114Z,99.90
2023-03-27T09:47:49.561Z,99.90
2023-03-27T09:50:27.871Z,99.90
2023-03-27T09:53:09.479Z,99.90
2023-03-27T09:55:50.673Z,99.90
2023-03-27T09:58:29.507Z,99.90
2023-03-27T10:01:16.058Z,99.90
2023-03-27T10:03:50.293Z,99.90
2023-03-27T10:06:28.305Z,99.90
2023-03-27T10:09:01.252Z,99.90
2023-03-27T10:11:33.161Z,99.90
2023-03-27T10:14:03.657Z,99.90
2023-03-27T10:16:41.696Z,99.90
2023-03-27T10:19:23.951Z,99.90
2023-03-27T10:21:55.201Z,99.90
2023-03-27T10:24:31.981Z,99.90
2023-03-27T10:27:01.542Z,99.90
2023-03-27T10:29:35.020Z,99.90
2023-03-27T10:32:06.152Z,99.90
2023-03-27T10:34:38.266Z,99.90
2023-03-27T10:37:22.196Z,99.90
2023-03-27T10:39:54.085Z,99.90
2023-03-27T10:42:24.001Z,99.90
2023-03-27T10:44:54.711Z,99.90
2023-03-27T10:47:25.794Z,99.90
2023-03-27T10:50:03.978Z,99.90
2023-03-27T10:52:41.847Z,99.90
2023-03-27T10:55:21.804Z,99.90
2023-03-27T10:57:54.953Z,99.90
2023-03-27T11:00:33.000Z,99.90
2023-03-27T11:03:07.013Z,99.90
2023-03-27T11:05:41.265Z,99.90
2023-03-27T11:08:17.460Z,99.90
2023-03-27T11:10:47.278Z,99.90
2023-03-27T11:13:19.846Z,99.90
2023-03-27T11:15:54.326Z,99.90
2023-03-27T11:18:27.081Z,99.90
2023-03-27T11:20:59.763Z,99.90
2023-03-27T11:23:35.383Z,99.90
2023-03-27T11:26:07.020Z,99.90
2023-03-27T11:28:43.218Z,99.90
2023-03-27T11:31:21.440Z,99.90
2023-03-27T11:33:53.768Z,99.90
2023-03-27T11:36:35.928Z,99.90
2023-03-27T11:39:15.557Z,99.90
2023-03-27T11:41:45.435Z,99.90
2023-03-27T11:44:16.054Z,99.90
2023-03-27T11:47:08.127Z,99.90
2023-03-27T11:49:47.122Z,99.90
2023-03-27T11:52:26.409Z,99.90
2023-03-27T11:55:07.688Z,99.90
2023-03-27T11:57:44.400Z,99.90
2023-03-27T12:00:22.098Z,99.90
2023-03-27T12:03:28.566Z,99.90
2023-03-27T12:06:14.845Z,99.90
2023-03-27T12:08:55.797Z,99.90
2023-03-27T12:11:27.202Z,99.90
2023-03-27T12:14:40.622Z,99.90
2023-03-27T12:17:34.089Z,99.90
2023-03-27T12:20:20.465Z,99.90
2023-03-27T12:22:58.565Z,99.90
2023-03-27T12:25:50.385Z,99.90
2023-03-27T12:28:33.181Z,99.90
2023-03-27T12:31:11.821Z,99.90
2023-03-27T12:33:49.862Z,99.90
2023-03-27T12:36:21.272Z,99.90
2023-03-27T12:38:50.196Z,99.90
2023-03-27T12:41:25.606Z,99.90
2023-03-27T12:44:00.144Z,99.90
2023-03-27T12:46:40.951Z,99.90
2023-03-27T12:49:47.580Z,99.90
2023-03-27T12:52:18.919Z,99.90
2023-03-27T12:55:07.163Z,99.90
2023-03-27T12:57:44.318Z,99.90
2023-03-27T13:00:25.752Z,99.90
2023-03-27T13:03:25.859Z,99.90
2023-03-27T13:06:23.841Z,99.90
2023-03-27T13:09:10.588Z,99.90
2023-03-27T13:11:49.665Z,99.90
2023-03-27T13:14:53.765Z,99.90
2023-03-27T13:17:40.385Z,99.90
2023-03-27T13:20:20.766Z,99.90
2023-03-27T13:23:08.354Z,99.30
2023-03-27T13:26:09.182Z,99.90
2023-03-27T13:28:39.710Z,99.70
2023-03-27T13:31:12.210Z,99.30
2023-03-27T13:33:45.818Z,99.10
2023-03-27T13:36:19.600Z,97.50
2023-03-27T13:39:06.128Z,96.90
2023-03-27T13:41:53.106Z,96.20
2023-03-27T13:44:28.398Z,95.30
2023-03-27T13:47:00.057Z,96.30
2023-03-27T13:49:49.422Z,95.50
2023-03-27T13:52:51.235Z,94.80
2023-03-27T13:56:07.268Z,96.20
2023-03-27T13:59:21.188Z,96.90
2023-03-27T14:02:01.166Z,96.30
2023-03-27T14:05:05.515Z,94.30
2023-03-27T14:07:57.425Z,92.70
2023-03-27T14:10:42.360Z,90.70
2023-03-27T14:13:26.972Z,89.60
2023-03-27T14:16:39.011Z,88.60
2023-03-27T14:19:32.120Z,89.90
2023-03-27T14:22:05.025Z,88.00
2023-03-27T14:24:39.564Z,87.80
2023-03-27T14:27:12.503Z,87.50
2023-03-27T14:29:40.886Z,88.00
2023-03-27T14:32:15.759Z,89.20
2023-03-27T14:34:54.354Z,89.20
2023-03-27T14:37:32.556Z,90.60
2023-03-27T14:40:02.216Z,89.30
2023-03-27T14:42:33.248Z,88.30
2023-03-27T14:45:23.202Z,89.40
2023-03-27T14:47:53.867Z,90.10
2023-03-27T14:50:23.240Z,89.70
2023-03-27T14:52:55.735Z,85.90
2023-03-27T14:55:29.976Z,84.30
2023-03-27T14:58:02.329Z,83.50
2023-03-27T15:00:33.613Z,82.90
2023-03-27T15:03:06.900Z,83.70
2023-03-27T15:05:35.246Z,83.70
2023-03-27T15:08:14.921Z,83.60
2023-03-27T15:10:51.562Z,83.80
2023-03-27T15:13:19.881Z,84.90
2023-03-27T15:15:50.298Z,86.30
2023-03-27T15:18:25.546Z,87.80
2023-03-27T15:20:55.191Z,89.40
2023-03-27T15:23:28.710Z,90.20
2023-03-27T15:26:02.563Z,91.20
2023-03-27T15:28:34.410Z,90.60
2023-03-27T15:31:04.723Z,90.70
2023-03-27T15:33:36.780Z,91.80
2023-03-27T15:36:10.042Z,93.30
2023-03-27T15:38:40.116Z,92.40
2023-03-27T15:41:37.855Z,93.10
2023-03-27T15:44:10.200Z,93.10
2023-03-27T15:46:53.253Z,90.40
2023-03-27T15:49:25.105Z,89.00
2023-03-27T15:51:53.826Z,89.60
2023-03-27T15:54:30.273Z,90.70
2023-03-27T15:57:10.217Z,91.50
2023-03-27T15:59:51.827Z,92.20
2023-03-27T16:02:25.069Z,91.90
2023-03-27T16:04:56.236Z,92.20
2023-03-27T16:07:29.296Z,92.30
2023-03-27T16:10:02.577Z,92.70
2023-03-27T16:12:35.327Z,92.60
2023-03-27T16:15:08.144Z,92.00
2023-03-27T16:17:41.304Z,92.60
2023-03-27T16:20:40.220Z,93.60
2023-03-27T16:23:08.907Z,94.30
2023-03-27T16:25:39.070Z,93.60
2023-03-27T16:28:10.117Z,93.90
2023-03-27T16:30:41.622Z,93.90
2023-03-27T16:33:15.883Z,93.90
2023-03-27T16:35:45.476Z,95.10
2023-03-27T16:38:14.732Z,94.00
2023-03-27T16:40:45.732Z,92.90
2023-03-27T16:43:15.014Z,92.70
2023-03-27T16:45:44.973Z,92.60
2023-03-27T16:48:13.757Z,92.40
2023-03-27T16:50:42.477Z,93.30
2023-03-27T16:53:11.371Z,93.20
2023-03-27T16:55:39.743Z,93.20
2023-03-27T16:58:09.900Z,93.60
2023-03-27T17:00:38.252Z,93.70
2023-03-27T17:03:06.970Z,93.80
2023-03-27T17:05:35.234Z,94.20
2023-03-27T17:08:05.967Z,95.60
2023-03-27T17:10:35.768Z,94.90
2023-03-27T17:13:04.046Z,96.60
2023-03-27T17:15:36.829Z,95.90
2023-03-27T17:18:07.760Z,96.20
2023-03-27T17:20:36.089Z,96.50
2023-03-27T17:23:04.462Z,97.20
2023-03-27T17:25:33.093Z,96.50
2023-03-27T17:28:01.441Z,97.50
2023-03-27T17:30:39.432Z,98.00
2023-03-27T17:33:11.710Z,97.70
2023-03-27T17:35:40.944Z,97.60
2023-03-27T17:38:10.485Z,98.30
2023-03-27T17:40:40.525Z,98.70
2023-03-27T17:43:09.025Z,98.90
2023-03-27T17:45:41.949Z,98.40
2023-03-27T17:48:12.651Z,99.00
2023-03-27T17:50:41.589Z,98.40
2023-03-27T17:53:09.933Z,99.90
2023-03-27T17:55:39.174Z,99.90
2023-03-27T17:58:10.122Z,99.90
2023-03-27T18:00:39.431Z,99.90
2023-03-27T18:03:09.050Z,99.90
2023-03-27T18:05:40.579Z,99.90
2023-03-27T18:08:11.416Z,99.90
2023-03-27T18:10:44.200Z,99.90
2023-03-27T18:13:13.312Z,99.90
2023-03-27T18:15:42.094Z,99.90
2023-03-27T18:18:10.465Z,99.90
2023-03-27T18:20:40.577Z,99.90
2023-03-27T18:23:08.892Z,99.90
2023-03-27T18:25:42.064Z,99.90
2023-03-27T18:28:11.564Z,99.90
2023-03-27T18:30:40.256Z,99.90
2023-03-27T18:33:08.929Z,99.90
2023-03-27T18:35:37.763Z,99.90
2023-03-27T18:38:07.921Z,99.90
2023-03-27T18:40:36.329Z,99.90
2023-03-27T18:43:04.793Z,99.90
2023-03-27T18:45:33.134Z,99.90
2023-03-27T18:48:01.819Z,99.90
2023-03-27T18:50:30.255Z,99.90
2023-03-27T18:52:58.686Z,99.90
2023-03-27T18:55:28.721Z,99.90
2023-03-27T18:57:56.943Z,99.90
2023-03-27T19:00:25.877Z,99.90
2023-03-27T19:02:54.623Z,99.90
2023-03-27T19:05:23.009Z,99.90
2023-03-27T19:07:51.372Z,99.90
2023-03-27T19:10:19.729Z,99.90
2023-03-27T19:12:50.614Z,99.90
2023-03-27T19:15:20.483Z,99.90
2023-03-27T19:17:49.206Z,99.90
2023-03-27T19:20:17.995Z,99.90
2023-03-27T19:22:46.568Z,99.90
2023-03-27T19:25:14.885Z,99.90
2023-03-27T19:27:43.462Z,99.90
2023-03-27T19:30:15.622Z,99.90
2023-03-27T19:32:44.203Z,99.90
2023-03-27T19:35:12.580Z,99.90
2023-03-27T19:37:41.832Z,99.90
2023-03-27T19:40:11.418Z,99.90
2023-03-27T19:42:39.866Z,99.90
2023-03-27T19:45:09.164Z,99.90
2023-03-27T19:47:39.357Z,99.90
2023-03-27T19:50:09.651Z,99.90
2023-03-27T19:52:38.214Z,99.90
2023-03-27T19:55:09.764Z,99.90
2023-03-27T19:57:38.246Z,99.90
2023-03-27T20:00:12.816Z,99.90
2023-03-27T20:02:44.156Z,99.90
2023-03-27T20:05:12.949Z,99.90
2023-03-27T20:07:41.693Z,99.90
2023-03-27T20:10:10.620Z,99.90
2023-03-27T20:12:39.453Z,99.90
2023-03-27T20:15:12.077Z,99.90
2023-03-27T20:17:43.110Z,99.90
2023-03-27T20:20:12.769Z,99.90
2023-03-27T20:22:54.731Z,99.90
2023-03-27T20:25:28.124Z,99.90
2023-03-27T20:27:56.523Z,99.90
2023-03-27T20:30:24.967Z,99.90
2023-03-27T20:32:55.572Z,99.90
2023-03-27T20:35:25.114Z,99.90
2023-03-27T20:37:58.087Z,99.90
2023-03-27T20:40:26.902Z,99.90
2023-03-27T20:43:03.717Z,99.90
2023-03-27T20:45:32.358Z,99.90
2023-03-27T20:48:04.344Z,99.90
2023-03-27T20:50:35.872Z,99.90
2023-03-27T20:53:04.963Z,99.90
2023-03-27T20:55:37.591Z,99.90
2023-03-27T20:58:09.841Z,99.90
2023-03-27T21:00:38.541Z,99.90
2023-03-27T21:03:08.553Z,99.90
2023-03-27T21:05:38.472Z,99.90
2023-03-27T21:08:07.693Z,99.90
2023-03-27T21:10:36.793Z,99.90
2023-03-27T21:13:06.029Z,99.90
2023-03-27T21:15:35.024Z,99.90
2023-03-27T21:18:03.713Z,99.90
2023-03-27T21:20:35.362Z,99.90
2023-03-27T21:23:03.985Z,99.90
2023-03-27T21:25:32.354Z,99.90
2023-03-27T21:28:01.022Z,99.90
2023-03-27T21:30:46.911Z,99.90
2023-03-27T21:33:17.542Z,99.90
2023-03-27T21:35:49.807Z,99.90
2023-03-27T21:38:19.139Z,99.90
2023-03-27T21:40:47.927Z,99.90
2023-03-27T21:43:16.304Z,99.90
2023-03-27T21:45:45.247Z,99.90
2023-03-27T21:48:13.583Z,99.90
2023-03-27T21:50:41.950Z,99.90
2023-03-27T21:53:13.265Z,99.90
2023-03-27T21:55:41.636Z,99.90
2023-03-27T21:58:09.894Z,99.90
2023-03-27T22:00:38.359Z,99.90
2023-03-27T22:03:06.980Z,99.90
2023-03-27T22:05:38.817Z,99.90
2023-03-27T22:08:07.757Z,99.90
2023-03-27T22:10:37.543Z,99.90
2023-03-27T22:13:07.159Z,99.90
2023-03-27T22:15:35.663Z,99.90
2023-03-27T22:18:04.062Z,99.90
2023-03-27T22:20:32.592Z,99.90
2023-03-27T22:23:00.888Z,99.90
2023-03-27T22:25:29.425Z,99.90
2023-03-27T22:28:01.738Z,99.90
2023-03-27T22:30:30.986Z,99.90
2023-03-27T22:32:59.374Z,99.90
2023-03-27T22:35:27.770Z,99.90
2023-03-27T22:37:56.068Z,99.90
2023-03-27T22:40:24.324Z,99.90
2023-03-27T22:42:52.604Z,99.90
2023-03-27T22:45:22.610Z,99.90
2023-03-27T22:47:51.219Z,99.90
2023-03-27T22:50:19.607Z,99.90
2023-03-27T22:52:47.848Z,99.90
2023-03-27T22:55:16.375Z,99.90
2023-03-27T22:57:44.755Z,99.90
2023-03-27T23:00:14.274Z,99.90
2023-03-27T23:02:44.232Z,99.90
2023-03-27T23:05:12.726Z,99.90
2023-03-27T23:07:41.322Z,99.90
2023-03-27T23:10:10.876Z,99.90
2023-03-27T23:12:39.353Z,99.90
2023-03-27T23:15:08.725Z,99.90
2023-03-27T23:17:37.064Z,99.90
2023-03-27T23:20:07.979Z,99.90
2023-03-27T23:22:36.224Z,99.90
2023-03-27T23:25:04.965Z,99.90
2023-03-27T23:27:33.695Z,99.90
2023-03-27T23:30:02.077Z,99.90
2023-03-27T23:32:30.602Z,99.90
2023-03-27T23:34:58.995Z,99.90
2023-03-27T23:37:30.442Z,99.90
2023-03-27T23:39:58.866Z,99.90
2023-03-27T23:42:27.176Z,99.90
2023-03-27T23:44:55.722Z,99.90
2023-03-27T23:47:24.242Z,99.90
2023-03-27T23:49:52.500Z,99.90
2023-03-27T23:52:21.411Z,99.90
2023-03-27T23:54:51.225Z,99.90
2023-03-27T23:57:19.979Z,99.90
2023-03-27T23:59:48.675Z,99.90
